Strona główna
METAR-TAF:

METAR-TAF

Lotnisko :

Port lotniczy Flores

Flores, Azory, Portugalia

Szerokość geograficzna: 39-27N, Długość geograficzna: 031-08W, wysokość: 28 m

Aktualna obserwacja pogody

Raport powstał 9 godziny i 36 minut temu, godzina 18:00 UTC
Wiatr 8 kt od południowo-południowy wschód
Temperatura 24°C
Wilgotność 94%
Ciśnienie 1026 hPa
Widzialność 10 km lub więcej
Mało chmury na wysokości 400 ft
Rozproszone chmury na wysokości 800 ft, Cumulusy wypiętrznone.

METAR: LPFL 231800Z 16008KT 9999 FEW004 SCT008TCU 24/23 Q1026

czas: 03:36 (03:36 UTC)


TAF: brakujący

Obserwacja i prognoza pogody dla ponad 4000 lotnisk (raport METAR i TAF).

Dostępne stacje oznaczono żółtymi i czerwonymi punktami na mapie.

Najedź kursorem aby zobaczyć nazwę stacji.

Kliknij aby zobaczyć obserwacje i prognozy pogody.

Aby zmienić mapę: kliknij na zielony przycisk z czarnym krzyżykiem, aby powiększyć; na zielony przycisk z myślnikiem, aby pomniejszyć; na zielone strzałki, aby przejść do map sąsiednich.


METAR-TAF: